sensor_id;sensor_type;location;lat;lon;timestamp;P1;durP1;ratioP1;P2;durP2;ratioP2
15814;SDS011;8008;50.024;8.172;2023-06-10T03:02:19;9.18;;;7.28;;
15814;SDS011;8008;50.024;8.172;2023-06-10T03:04:50;8.88;;;7.70;;
15814;SDS011;8008;50.024;8.172;2023-06-10T03:07:19;8.30;;;7.50;;
15814;SDS011;8008;50.024;8.172;2023-06-10T03:09:50;10.88;;;8.02;;
15814;SDS011;8008;50.024;8.172;2023-06-10T03:12:19;8.23;;;7.22;;
15814;SDS011;8008;50.024;8.172;2023-06-10T03:14:48;9.70;;;7.47;;
15814;SDS011;8008;50.024;8.172;2023-06-10T03:17:17;8.15;;;6.82;;
15814;SDS011;8008;50.024;8.172;2023-06-10T03:19:46;9.07;;;7.13;;
15814;SDS011;8008;50.024;8.172;2023-06-10T03:22:14;8.35;;;6.80;;
15814;SDS011;8008;50.024;8.172;2023-06-10T03:24:54;7.13;;;6.43;;
15814;SDS011;8008;50.024;8.172;2023-06-10T03:27:23;9.20;;;7.53;;
15814;SDS011;8008;50.024;8.172;2023-06-10T03:29:58;10.20;;;7.82;;
15814;SDS011;8008;50.024;8.172;2023-06-10T03:32:26;8.32;;;7.53;;
15814;SDS011;8008;50.024;8.172;2023-06-10T03:34:56;9.35;;;7.88;;
15814;SDS011;8008;50.024;8.172;2023-06-10T03:37:27;8.30;;;7.10;;
15814;SDS011;8008;50.024;8.172;2023-06-10T03:39:55;8.43;;;7.45;;
15814;SDS011;8008;50.024;8.172;2023-06-10T03:42:23;8.50;;;7.20;;
15814;SDS011;8008;50.024;8.172;2023-06-10T03:44:51;9.85;;;8.32;;
15814;SDS011;8008;50.024;8.172;2023-06-10T03:47:20;11.38;;;7.85;;
15814;SDS011;8008;50.024;8.172;2023-06-10T03:49:48;10.10;;;7.88;;
15814;SDS011;8008;50.024;8.172;2023-06-10T03:52:17;10.32;;;8.00;;
15814;SDS011;8008;50.024;8.172;2023-06-10T03:54:45;9.70;;;7.65;;
15814;SDS011;8008;50.024;8.172;2023-06-10T03:57:13;9.15;;;7.10;;
15814;SDS011;8008;50.024;8.172;2023-06-10T03:59:41;8.70;;;7.03;;
15814;SDS011;8008;50.024;8.172;2023-06-10T04:02:09;10.32;;;7.38;;
15814;SDS011;8008;50.024;8.172;2023-06-10T04:04:37;7.90;;;7.10;;
15814;SDS011;8008;50.024;8.172;2023-06-10T04:07:05;7.55;;;6.75;;
15814;SDS011;8008;50.024;8.172;2023-06-10T04:09:36;7.22;;;6.50;;
15814;SDS011;8008;50.024;8.172;2023-06-10T04:12:05;8.93;;;7.45;;
15814;SDS011;8008;50.024;8.172;2023-06-10T04:14:35;9.23;;;7.22;;
15814;SDS011;8008;50.024;8.172;2023-06-10T04:17:05;8.57;;;7.40;;
15814;SDS011;8008;50.024;8.172;2023-06-10T04:19:35;9.27;;;7.97;;
15814;SDS011;8008;50.024;8.172;2023-06-10T04:22:04;8.85;;;7.65;;
15814;SDS011;8008;50.024;8.172;2023-06-10T04:24:32;8.82;;;7.60;;
15814;SDS011;8008;50.024;8.172;2023-06-10T04:27:01;9.25;;;7.57;;
15814;SDS011;8008;50.024;8.172;2023-06-10T04:29:29;9.43;;;7.95;;
15814;SDS011;8008;50.024;8.172;2023-06-10T04:31:58;9.88;;;8.30;;
15814;SDS011;8008;50.024;8.172;2023-06-10T04:34:30;9.85;;;7.75;;
15814;SDS011;8008;50.024;8.172;2023-06-10T04:36:57;10.70;;;7.90;;
15814;SDS011;8008;50.024;8.172;2023-06-10T04:39:25;9.40;;;7.85;;
15814;SDS011;8008;50.024;8.172;2023-06-10T04:41:55;9.23;;;7.28;;
15814;SDS011;8008;50.024;8.172;2023-06-10T04:44:24;9.40;;;8.10;;
15814;SDS011;8008;50.024;8.172;2023-06-10T04:46:52;11.48;;;8.07;;
15814;SDS011;8008;50.024;8.172;2023-06-10T04:49:21;9.93;;;7.80;;
15814;SDS011;8008;50.024;8.172;2023-06-10T04:51:49;9.18;;;7.78;;
15814;SDS011;8008;50.024;8.172;2023-06-10T04:54:18;9.63;;;7.72;;
15814;SDS011;8008;50.024;8.172;2023-06-10T04:56:46;9.10;;;7.60;;
15814;SDS011;8008;50.024;8.172;2023-06-10T04:59:14;9.63;;;7.90;;
15814;SDS011;8008;50.024;8.172;2023-06-10T05:01:43;9.98;;;7.90;;
15814;SDS011;8008;50.024;8.172;2023-06-10T05:04:11;8.18;;;7.38;;
15814;SDS011;8008;50.024;8.172;2023-06-10T05:06:39;9.45;;;7.90;;
15814;SDS011;8008;50.024;8.172;2023-06-10T05:09:07;9.55;;;7.95;;
15814;SDS011;8008;50.024;8.172;2023-06-10T05:11:35;7.97;;;7.18;;
15814;SDS011;8008;50.024;8.172;2023-06-10T05:14:03;8.63;;;7.80;;
15814;SDS011;8008;50.024;8.172;2023-06-10T05:16:31;9.63;;;7.50;;
15814;SDS011;8008;50.024;8.172;2023-06-10T05:19:00;11.25;;;7.95;;
15814;SDS011;8008;50.024;8.172;2023-06-10T05:21:33;9.07;;;7.40;;
15814;SDS011;8008;50.024;8.172;2023-06-10T05:24:01;9.20;;;7.68;;
15814;SDS011;8008;50.024;8.172;2023-06-10T05:26:29;9.30;;;7.55;;
15814;SDS011;8008;50.024;8.172;2023-06-10T05:28:59;8.95;;;7.75;;
15814;SDS011;8008;50.024;8.172;2023-06-10T05:31:27;10.23;;;7.78;;
15814;SDS011;8008;50.024;8.172;2023-06-10T05:33:55;8.13;;;7.32;;
15814;SDS011;8008;50.024;8.172;2023-06-10T05:36:24;8.50;;;7.60;;
15814;SDS011;8008;50.024;8.172;2023-06-10T05:38:53;8.93;;;8.00;;
15814;SDS011;8008;50.024;8.172;2023-06-10T05:41:21;8.82;;;7.75;;
15814;SDS011;8008;50.024;8.172;2023-06-10T05:43:49;9.07;;;7.63;;
15814;SDS011;8008;50.024;8.172;2023-06-10T05:46:17;8.82;;;7.75;;
15814;SDS011;8008;50.024;8.172;2023-06-10T05:48:45;8.80;;;7.22;;
15814;SDS011;8008;50.024;8.172;2023-06-10T05:51:13;8.43;;;7.50;;
15814;SDS011;8008;50.024;8.172;2023-06-10T05:53:42;8.18;;;7.38;;
15814;SDS011;8008;50.024;8.172;2023-06-10T05:56:12;8.40;;;7.60;;
15814;SDS011;8008;50.024;8.172;2023-06-10T05:58:40;8.38;;;7.38;;
15814;SDS011;8008;50.024;8.172;2023-06-10T06:01:08;8.25;;;7.25;;
15814;SDS011;8008;50.024;8.172;2023-06-10T06:03:36;7.72;;;6.88;;
15814;SDS011;8008;50.024;8.172;2023-06-10T06:06:05;8.00;;;7.07;;
15814;SDS011;8008;50.024;8.172;2023-06-10T06:08:33;8.10;;;6.35;;
15814;SDS011;8008;50.024;8.172;2023-06-10T06:11:02;6.75;;;6.05;;
15814;SDS011;8008;50.024;8.172;2023-06-10T06:13:30;7.53;;;6.38;;
15814;SDS011;8008;50.024;8.172;2023-06-10T06:15:58;7.15;;;6.03;;
15814;SDS011;8008;50.024;8.172;2023-06-10T06:18:26;6.82;;;6.10;;
15814;SDS011;8008;50.024;8.172;2023-06-10T06:20:54;6.82;;;6.10;;
15814;SDS011;8008;50.024;8.172;2023-06-10T06:23:22;9.32;;;6.28;;
15814;SDS011;8008;50.024;8.172;2023-06-10T06:25:50;7.30;;;6.13;;
15814;SDS011;8008;50.024;8.172;2023-06-10T06:28:20;6.55;;;5.85;;
15814;SDS011;8008;50.024;8.172;2023-06-10T06:30:48;6.70;;;5.82;;
15814;SDS011;8008;50.024;8.172;2023-06-10T06:33:16;7.32;;;5.68;;
15814;SDS011;8008;50.024;8.172;2023-06-10T06:35:44;6.78;;;5.72;;
15814;SDS011;8008;50.024;8.172;2023-06-10T06:38:13;6.88;;;6.28;;
15814;SDS011;8008;50.024;8.172;2023-06-10T06:40:41;6.85;;;6.15;;
15814;SDS011;8008;50.024;8.172;2023-06-10T06:43:09;7.55;;;6.50;;
15814;SDS011;8008;50.024;8.172;2023-06-10T06:45:48;8.90;;;6.13;;
15814;SDS011;8008;50.024;8.172;2023-06-10T06:48:16;7.57;;;6.15;;
15814;SDS011;8008;50.024;8.172;2023-06-10T06:50:44;6.40;;;5.70;;
15814;SDS011;8008;50.024;8.172;2023-06-10T06:53:13;9.13;;;5.90;;
15814;SDS011;8008;50.024;8.172;2023-06-10T06:55:41;6.85;;;6.03;;
15814;SDS011;8008;50.024;8.172;2023-06-10T06:58:11;8.10;;;6.05;;
15814;SDS011;8008;50.024;8.172;2023-06-10T07:00:39;6.95;;;6.13;;
15814;SDS011;8008;50.024;8.172;2023-06-10T07:03:09;7.28;;;5.78;;
15814;SDS011;8008;50.024;8.172;2023-06-10T07:05:37;9.05;;;5.90;;
15814;SDS011;8008;50.024;8.172;2023-06-10T07:08:05;8.90;;;5.68;;
15814;SDS011;8008;50.024;8.172;2023-06-10T07:10:33;6.85;;;6.13;;
15814;SDS011;8008;50.024;8.172;2023-06-10T07:13:01;8.77;;;6.40;;
15814;SDS011;8008;50.024;8.172;2023-06-10T07:15:29;6.60;;;5.90;;
15814;SDS011;8008;50.024;8.172;2023-06-10T07:17:58;6.40;;;5.72;;
15814;SDS011;8008;50.024;8.172;2023-06-10T07:20:28;7.00;;;6.03;;
15814;SDS011;8008;50.024;8.172;2023-06-10T07:22:56;6.75;;;6.00;;
15814;SDS011;8008;50.024;8.172;2023-06-10T07:25:24;7.68;;;6.55;;
15814;SDS011;8008;50.024;8.172;2023-06-10T07:27:52;7.32;;;6.20;;
15814;SDS011;8008;50.024;8.172;2023-06-10T07:30:19;7.25;;;6.28;;
15814;SDS011;8008;50.024;8.172;2023-06-10T07:32:47;7.43;;;6.40;;
15814;SDS011;8008;50.024;8.172;2023-06-10T07:35:15;7.88;;;6.40;;
15814;SDS011;8008;50.024;8.172;2023-06-10T07:37:46;6.53;;;5.93;;
15814;SDS011;8008;50.024;8.172;2023-06-10T07:40:14;6.97;;;6.10;;
15814;SDS011;8008;50.024;8.172;2023-06-10T07:42:42;6.55;;;5.95;;
15814;SDS011;8008;50.024;8.172;2023-06-10T07:45:10;7.03;;;6.28;;
15814;SDS011;8008;50.024;8.172;2023-06-10T07:47:38;7.40;;;6.35;;
15814;SDS011;8008;50.024;8.172;2023-06-10T07:50:06;7.70;;;6.03;;
15814;SDS011;8008;50.024;8.172;2023-06-10T07:52:35;6.78;;;5.93;;
15814;SDS011;8008;50.024;8.172;2023-06-10T07:55:04;9.98;;;6.30;;
15814;SDS011;8008;50.024;8.172;2023-06-10T07:57:34;6.88;;;6.18;;
15814;SDS011;8008;50.024;8.172;2023-06-10T08:00:03;7.00;;;6.10;;
15814;SDS011;8008;50.024;8.172;2023-06-10T08:02:37;7.35;;;6.57;;
15814;SDS011;8008;50.024;8.172;2023-06-10T08:05:06;6.85;;;6.15;;
15814;SDS011;8008;50.024;8.172;2023-06-10T08:07:35;7.90;;;6.78;;
15814;SDS011;8008;50.024;8.172;2023-06-10T08:10:06;6.82;;;6.13;;
15814;SDS011;8008;50.024;8.172;2023-06-10T08:12:34;7.00;;;6.30;;
15814;SDS011;8008;50.024;8.172;2023-06-10T08:15:03;6.90;;;6.30;;
15814;SDS011;8008;50.024;8.172;2023-06-10T08:17:32;8.40;;;6.43;;
15814;SDS011;8008;50.024;8.172;2023-06-10T08:20:01;6.90;;;5.93;;
15814;SDS011;8008;50.024;8.172;2023-06-10T08:22:29;8.18;;;6.10;;
15814;SDS011;8008;50.024;8.172;2023-06-10T08:24:57;7.10;;;6.43;;
15814;SDS011;8008;50.024;8.172;2023-06-10T08:27:26;7.15;;;6.45;;
15814;SDS011;8008;50.024;8.172;2023-06-10T08:29:54;7.70;;;6.50;;
15814;SDS011;8008;50.024;8.172;2023-06-10T08:32:22;7.75;;;5.97;;
15814;SDS011;8008;50.024;8.172;2023-06-10T08:34:50;8.13;;;6.50;;
15814;SDS011;8008;50.024;8.172;2023-06-10T08:37:18;6.90;;;6.28;;
15814;SDS011;8008;50.024;8.172;2023-06-10T08:39:46;7.10;;;6.40;;
15814;SDS011;8008;50.024;8.172;2023-06-10T08:42:15;7.50;;;6.65;;
15814;SDS011;8008;50.024;8.172;2023-06-10T08:44:53;7.38;;;6.68;;
15814;SDS011;8008;50.024;8.172;2023-06-10T08:47:23;7.15;;;6.32;;
15814;SDS011;8008;50.024;8.172;2023-06-10T08:49:51;7.57;;;6.75;;
15814;SDS011;8008;50.024;8.172;2023-06-10T08:52:22;7.80;;;7.00;;
15814;SDS011;8008;50.024;8.172;2023-06-10T08:54:54;7.40;;;6.70;;
15814;SDS011;8008;50.024;8.172;2023-06-10T08:57:26;7.40;;;6.70;;
15814;SDS011;8008;50.024;8.172;2023-06-10T08:59:56;9.10;;;6.85;;
15814;SDS011;8008;50.024;8.172;2023-06-10T09:02:24;7.65;;;6.90;;
15814;SDS011;8008;50.024;8.172;2023-06-10T09:04:54;6.80;;;6.18;;
15814;SDS011;8008;50.024;8.172;2023-06-10T09:07:23;9.73;;;6.80;;
15814;SDS011;8008;50.024;8.172;2023-06-10T09:09:52;8.98;;;6.07;;
15814;SDS011;8008;50.024;8.172;2023-06-10T09:12:21;7.80;;;6.57;;
15814;SDS011;8008;50.024;8.172;2023-06-10T09:14:49;7.55;;;6.55;;
15814;SDS011;8008;50.024;8.172;2023-06-10T09:17:19;7.45;;;5.53;;
15814;SDS011;8008;50.024;8.172;2023-06-10T09:19:47;6.95;;;6.25;;
15814;SDS011;8008;50.024;8.172;2023-06-10T09:22:16;7.28;;;6.13;;
15814;SDS011;8008;50.024;8.172;2023-06-10T09:24:44;7.65;;;5.97;;
15814;SDS011;8008;50.024;8.172;2023-06-10T09:27:13;6.70;;;5.93;;
15814;SDS011;8008;50.024;8.172;2023-06-10T09:29:47;8.70;;;6.88;;
15814;SDS011;8008;50.024;8.172;2023-06-10T09:32:21;9.38;;;6.60;;
15814;SDS011;8008;50.024;8.172;2023-06-10T09:34:49;8.43;;;6.40;;
15814;SDS011;8008;50.024;8.172;2023-06-10T09:37:19;8.18;;;6.30;;
15814;SDS011;8008;50.024;8.172;2023-06-10T09:40:00;6.85;;;6.25;;
15814;SDS011;8008;50.024;8.172;2023-06-10T09:42:33;7.15;;;6.30;;
15814;SDS011;8008;50.024;8.172;2023-06-10T09:45:02;7.68;;;6.88;;
15814;SDS011;8008;50.024;8.172;2023-06-10T09:47:32;7.03;;;6.30;;
15814;SDS011;8008;50.024;8.172;2023-06-10T09:50:00;6.70;;;6.00;;
15814;SDS011;8008;50.024;8.172;2023-06-10T09:52:29;6.72;;;6.03;;
15814;SDS011;8008;50.024;8.172;2023-06-10T09:54:59;6.82;;;6.13;;
15814;SDS011;8008;50.024;8.172;2023-06-10T09:57:30;7.32;;;6.57;;
15814;SDS011;8008;50.024;8.172;2023-06-10T10:00:03;6.88;;;6.18;;
15814;SDS011;8008;50.024;8.172;2023-06-10T10:02:43;7.25;;;6.55;;
15814;SDS011;8008;50.024;8.172;2023-06-10T10:05:13;8.82;;;6.53;;
15814;SDS011;8008;50.024;8.172;2023-06-10T10:07:42;7.22;;;6.47;;
15814;SDS011;8008;50.024;8.172;2023-06-10T10:10:12;7.45;;;5.95;;
15814;SDS011;8008;50.024;8.172;2023-06-10T10:12:42;8.32;;;6.30;;
15814;SDS011;8008;50.024;8.172;2023-06-10T10:15:13;7.85;;;6.40;;
15814;SDS011;8008;50.024;8.172;2023-06-10T10:17:46;7.32;;;6.18;;
15814;SDS011;8008;50.024;8.172;2023-06-10T10:20:20;13.40;;;6.40;;
15814;SDS011;8008;50.024;8.172;2023-06-10T10:22:56;6.75;;;6.13;;
15814;SDS011;8008;50.024;8.172;2023-06-10T10:25:27;6.63;;;5.78;;
15814;SDS011;8008;50.024;8.172;2023-06-10T10:27:58;8.52;;;6.13;;
15814;SDS011;8008;50.024;8.172;2023-06-10T10:30:30;6.57;;;5.97;;
15814;SDS011;8008;50.024;8.172;2023-06-10T10:33:04;8.70;;;6.22;;
15814;SDS011;8008;50.024;8.172;2023-06-10T10:35:36;6.38;;;5.75;;
15814;SDS011;8008;50.024;8.172;2023-06-10T10:38:06;6.53;;;5.93;;
15814;SDS011;8008;50.024;8.172;2023-06-10T10:40:36;7.70;;;6.07;;
15814;SDS011;8008;50.024;8.172;2023-06-10T10:43:05;6.88;;;5.80;;
15814;SDS011;8008;50.024;8.172;2023-06-10T10:45:34;8.35;;;5.97;;
15814;SDS011;8008;50.024;8.172;2023-06-10T10:48:07;7.05;;;6.10;;
15814;SDS011;8008;50.024;8.172;2023-06-10T10:50:38;7.45;;;6.47;;
15814;SDS011;8008;50.024;8.172;2023-06-10T10:53:07;6.75;;;6.05;;
15814;SDS011;8008;50.024;8.172;2023-06-10T10:55:35;7.45;;;6.03;;
15814;SDS011;8008;50.024;8.172;2023-06-10T10:58:04;7.20;;;5.97;;
15814;SDS011;8008;50.024;8.172;2023-06-10T11:00:34;7.18;;;6.25;;
15814;SDS011;8008;50.024;8.172;2023-06-10T11:03:06;6.45;;;5.85;;
15814;SDS011;8008;50.024;8.172;2023-06-10T11:05:38;7.72;;;5.80;;
15814;SDS011;8008;50.024;8.172;2023-06-10T11:08:08;6.28;;;5.68;;
15814;SDS011;8008;50.024;8.172;2023-06-10T11:10:37;7.57;;;5.63;;
15814;SDS011;8008;50.024;8.172;2023-06-10T11:13:07;6.07;;;5.47;;
15814;SDS011;8008;50.024;8.172;2023-06-10T11:15:39;6.55;;;5.40;;
15814;SDS011;8008;50.024;8.172;2023-06-10T11:18:18;5.95;;;5.40;;
15814;SDS011;8008;50.024;8.172;2023-06-10T11:20:53;6.40;;;5.80;;
15814;SDS011;8008;50.024;8.172;2023-06-10T11:23:33;6.30;;;5.80;;
15814;SDS011;8008;50.024;8.172;2023-06-10T11:26:12;5.80;;;5.30;;
15814;SDS011;8008;50.024;8.172;2023-06-10T11:29:05;6.28;;;5.75;;
15814;SDS011;8008;50.024;8.172;2023-06-10T11:31:39;7.43;;;5.43;;
15814;SDS011;8008;50.024;8.172;2023-06-10T11:34:12;6.05;;;5.50;;
15814;SDS011;8008;50.024;8.172;2023-06-10T11:36:41;7.53;;;5.97;;
15814;SDS011;8008;50.024;8.172;2023-06-10T11:39:12;6.35;;;5.68;;
15814;SDS011;8008;50.024;8.172;2023-06-10T11:41:40;6.22;;;5.60;;
15814;SDS011;8008;50.024;8.172;2023-06-10T11:44:08;8.68;;;5.50;;
15814;SDS011;8008;50.024;8.172;2023-06-10T11:46:37;6.82;;;5.60;;
15814;SDS011;8008;50.024;8.172;2023-06-10T11:49:06;7.10;;;5.80;;
15814;SDS011;8008;50.024;8.172;2023-06-10T11:51:36;6.10;;;5.60;;
15814;SDS011;8008;50.024;8.172;2023-06-10T11:54:05;5.53;;;5.00;;
15814;SDS011;8008;50.024;8.172;2023-06-10T11:56:35;7.72;;;5.70;;
15814;SDS011;8008;50.024;8.172;2023-06-10T11:59:04;6.78;;;5.63;;
15814;SDS011;8008;50.024;8.172;2023-06-10T12:01:34;6.70;;;5.35;;
15814;SDS011;8008;50.024;8.172;2023-06-10T12:04:08;5.72;;;5.13;;
15814;SDS011;8008;50.024;8.172;2023-06-10T12:06:39;8.43;;;5.75;;
15814;SDS011;8008;50.024;8.172;2023-06-10T12:09:15;5.82;;;5.32;;
15814;SDS011;8008;50.024;8.172;2023-06-10T12:11:52;8.10;;;5.40;;
15814;SDS011;8008;50.024;8.172;2023-06-10T12:17:20;5.25;;;4.75;;
15814;SDS011;8008;50.024;8.172;2023-06-10T12:19:50;5.82;;;5.00;;
15814;SDS011;8008;50.024;8.172;2023-06-10T12:22:20;5.53;;;5.03;;
15814;SDS011;8008;50.024;8.172;2023-06-10T12:24:59;5.68;;;4.97;;
15814;SDS011;8008;50.024;8.172;2023-06-10T12:27:29;5.38;;;4.88;;
15814;SDS011;8008;50.024;8.172;2023-06-10T12:29:58;5.18;;;4.75;;
15814;SDS011;8008;50.024;8.172;2023-06-10T12:32:36;4.88;;;4.53;;
15814;SDS011;8008;50.024;8.172;2023-06-10T12:35:06;4.88;;;4.40;;
15814;SDS011;8008;50.024;8.172;2023-06-10T12:37:37;5.05;;;4.63;;
15814;SDS011;8008;50.024;8.172;2023-06-10T12:40:09;5.95;;;4.88;;
15814;SDS011;8008;50.024;8.172;2023-06-10T12:42:38;4.88;;;4.47;;
15814;SDS011;8008;50.024;8.172;2023-06-10T12:45:06;5.55;;;5.05;;
15814;SDS011;8008;50.024;8.172;2023-06-10T12:47:37;5.15;;;4.70;;
15814;SDS011;8008;50.024;8.172;2023-06-10T12:50:06;5.28;;;4.72;;
15814;SDS011;8008;50.024;8.172;2023-06-10T12:52:35;5.50;;;5.10;;
15814;SDS011;8008;50.024;8.172;2023-06-10T12:55:05;5.40;;;4.70;;
15814;SDS011;8008;50.024;8.172;2023-06-10T12:57:33;5.00;;;4.60;;
15814;SDS011;8008;50.024;8.172;2023-06-10T13:00:01;4.82;;;4.25;;
15814;SDS011;8008;50.024;8.172;2023-06-10T13:02:34;5.20;;;4.47;;
15814;SDS011;8008;50.024;8.172;2023-06-10T13:05:02;4.70;;;4.25;;
15814;SDS011;8008;50.024;8.172;2023-06-10T13:07:31;4.20;;;3.90;;
15814;SDS011;8008;50.024;8.172;2023-06-10T13:09:59;4.55;;;4.15;;
15814;SDS011;8008;50.024;8.172;2023-06-10T13:12:29;4.25;;;3.85;;
15814;SDS011;8008;50.024;8.172;2023-06-10T13:15:13;5.78;;;4.18;;
15814;SDS011;8008;50.024;8.172;2023-06-10T13:17:42;4.97;;;4.50;;
15814;SDS011;8008;50.024;8.172;2023-06-10T13:20:12;5.00;;;4.10;;
15814;SDS011;8008;50.024;8.172;2023-06-10T13:22:40;5.63;;;4.30;;
15814;SDS011;8008;50.024;8.172;2023-06-10T13:25:08;5.03;;;4.53;;
15814;SDS011;8008;50.024;8.172;2023-06-10T13:27:39;4.80;;;4.35;;
15814;SDS011;8008;50.024;8.172;2023-06-10T13:30:09;5.00;;;4.50;;
15814;SDS011;8008;50.024;8.172;2023-06-10T13:32:38;4.75;;;4.35;;
15814;SDS011;8008;50.024;8.172;2023-06-10T13:35:06;4.78;;;4.38;;
15814;SDS011;8008;50.024;8.172;2023-06-10T13:37:35;5.57;;;4.32;;
15814;SDS011;8008;50.024;8.172;2023-06-10T13:40:04;4.43;;;4.03;;
15814;SDS011;8008;50.024;8.172;2023-06-10T13:42:34;4.57;;;4.10;;
15814;SDS011;8008;50.024;8.172;2023-06-10T13:45:05;4.63;;;4.22;;
15814;SDS011;8008;50.024;8.172;2023-06-10T13:47:36;4.65;;;4.20;;
15814;SDS011;8008;50.024;8.172;2023-06-10T13:50:04;4.35;;;4.00;;
15814;SDS011;8008;50.024;8.172;2023-06-10T13:52:33;4.70;;;4.30;;
15814;SDS011;8008;50.024;8.172;2023-06-10T13:55:01;5.80;;;4.28;;
15814;SDS011;8008;50.024;8.172;2023-06-10T13:57:30;4.45;;;4.13;;
15814;SDS011;8008;50.024;8.172;2023-06-10T13:59:58;4.65;;;4.07;;
15814;SDS011;8008;50.024;8.172;2023-06-10T14:02:27;5.13;;;4.50;;
15814;SDS011;8008;50.024;8.172;2023-06-10T14:04:55;4.47;;;4.00;;
15814;SDS011;8008;50.024;8.172;2023-06-10T14:07:23;4.95;;;4.47;;
15814;SDS011;8008;50.024;8.172;2023-06-10T14:09:52;4.82;;;4.43;;
15814;SDS011;8008;50.024;8.172;2023-06-10T14:12:20;5.97;;;4.13;;
15814;SDS011;8008;50.024;8.172;2023-06-10T14:14:48;4.72;;;4.30;;
15814;SDS011;8008;50.024;8.172;2023-06-10T14:17:16;4.35;;;4.05;;
15814;SDS011;8008;50.024;8.172;2023-06-10T14:19:45;5.00;;;4.40;;
15814;SDS011;8008;50.024;8.172;2023-06-10T14:22:13;4.45;;;3.80;;
15814;SDS011;8008;50.024;8.172;2023-06-10T14:24:41;4.95;;;4.03;;
15814;SDS011;8008;50.024;8.172;2023-06-10T14:27:09;4.70;;;4.03;;
15814;SDS011;8008;50.024;8.172;2023-06-10T14:29:37;4.30;;;3.90;;
15814;SDS011;8008;50.024;8.172;2023-06-10T14:32:05;4.68;;;4.18;;
15814;SDS011;8008;50.024;8.172;2023-06-10T14:34:35;4.47;;;4.07;;
15814;SDS011;8008;50.024;8.172;2023-06-10T14:37:04;4.13;;;3.83;;
15814;SDS011;8008;50.024;8.172;2023-06-10T14:39:33;6.32;;;4.18;;
15814;SDS011;8008;50.024;8.172;2023-06-10T14:42:02;5.00;;;3.92;;
15814;SDS011;8008;50.024;8.172;2023-06-10T14:44:31;17.85;;;5.25;;
15814;SDS011;8008;50.024;8.172;2023-06-10T14:46:59;4.60;;;4.20;;
15814;SDS011;8008;50.024;8.172;2023-06-10T14:49:27;4.60;;;4.20;;
15814;SDS011;8008;50.024;8.172;2023-06-10T14:51:54;4.25;;;3.85;;
15814;SDS011;8008;50.024;8.172;2023-06-10T14:54:24;5.05;;;4.38;;
15814;SDS011;8008;50.024;8.172;2023-06-10T14:56:52;4.90;;;4.38;;
15814;SDS011;8008;50.024;8.172;2023-06-10T14:59:20;4.35;;;4.05;;
15814;SDS011;8008;50.024;8.172;2023-06-10T15:01:47;4.40;;;4.00;;
15814;SDS011;8008;50.024;8.172;2023-06-10T15:04:15;4.72;;;4.28;;
15814;SDS011;8008;50.024;8.172;2023-06-10T15:06:48;4.55;;;4.07;;
15814;SDS011;8008;50.024;8.172;2023-06-10T15:09:16;4.43;;;3.90;;
15814;SDS011;8008;50.024;8.172;2023-06-10T15:11:45;5.40;;;3.97;;
15814;SDS011;8008;50.024;8.172;2023-06-10T15:14:13;4.28;;;3.90;;
15814;SDS011;8008;50.024;8.172;2023-06-10T15:16:41;4.82;;;4.20;;
15814;SDS011;8008;50.024;8.172;2023-06-10T15:19:09;5.85;;;4.22;;
15814;SDS011;8008;50.024;8.172;2023-06-10T15:21:37;7.78;;;4.40;;
15814;SDS011;8008;50.024;8.172;2023-06-10T15:24:06;5.28;;;4.15;;
15814;SDS011;8008;50.024;8.172;2023-06-10T15:26:34;4.97;;;4.47;;
15814;SDS011;8008;50.024;8.172;2023-06-10T15:29:03;4.63;;;4.18;;
15814;SDS011;8008;50.024;8.172;2023-06-10T15:31:32;4.90;;;4.50;;
15814;SDS011;8008;50.024;8.172;2023-06-10T15:34:00;5.82;;;4.65;;
15814;SDS011;8008;50.024;8.172;2023-06-10T15:36:28;4.88;;;4.10;;
15814;SDS011;8008;50.024;8.172;2023-06-10T15:38:58;5.22;;;4.40;;
15814;SDS011;8008;50.024;8.172;2023-06-10T15:41:29;7.72;;;4.05;;
15814;SDS011;8008;50.024;8.172;2023-06-10T15:43:57;5.78;;;3.90;;
15814;SDS011;8008;50.024;8.172;2023-06-10T15:46:27;4.78;;;4.05;;
15814;SDS011;8008;50.024;8.172;2023-06-10T15:48:56;5.22;;;3.90;;
15814;SDS011;8008;50.024;8.172;2023-06-10T15:51:24;4.63;;;3.92;;
15814;SDS011;8008;50.024;8.172;2023-06-10T15:53:53;3.90;;;3.60;;
15814;SDS011;8008;50.024;8.172;2023-06-10T15:56:21;4.47;;;4.10;;
15814;SDS011;8008;50.024;8.172;2023-06-10T15:58:49;6.13;;;4.22;;
15814;SDS011;8008;50.024;8.172;2023-06-10T16:01:17;4.40;;;3.97;;
15814;SDS011;8008;50.024;8.172;2023-06-10T16:03:48;4.65;;;3.95;;
15814;SDS011;8008;50.024;8.172;2023-06-10T16:06:16;4.47;;;4.07;;
15814;SDS011;8008;50.024;8.172;2023-06-10T16:08:44;4.50;;;4.10;;
15814;SDS011;8008;50.024;8.172;2023-06-10T16:11:13;4.47;;;4.07;;
15814;SDS011;8008;50.024;8.172;2023-06-10T16:13:41;4.57;;;4.18;;
15814;SDS011;8008;50.024;8.172;2023-06-10T16:16:09;4.40;;;4.00;;
15814;SDS011;8008;50.024;8.172;2023-06-10T16:18:37;4.85;;;4.45;;
15814;SDS011;8008;50.024;8.172;2023-06-10T16:21:07;6.50;;;4.40;;
15814;SDS011;8008;50.024;8.172;2023-06-10T16:23:35;5.47;;;4.28;;
15814;SDS011;8008;50.024;8.172;2023-06-10T16:26:05;4.80;;;4.40;;
15814;SDS011;8008;50.024;8.172;2023-06-10T16:28:33;4.85;;;4.35;;
15814;SDS011;8008;50.024;8.172;2023-06-10T16:31:01;5.28;;;4.30;;
15814;SDS011;8008;50.024;8.172;2023-06-10T16:33:29;5.63;;;4.50;;
15814;SDS011;8008;50.024;8.172;2023-06-10T16:35:58;5.03;;;4.53;;
15814;SDS011;8008;50.024;8.172;2023-06-10T16:38:27;5.10;;;4.60;;
15814;SDS011;8008;50.024;8.172;2023-06-10T16:40:55;5.05;;;4.22;;
15814;SDS011;8008;50.024;8.172;2023-06-10T16:43:24;4.72;;;4.32;;
15814;SDS011;8008;50.024;8.172;2023-06-10T16:45:53;4.55;;;4.20;;
15814;SDS011;8008;50.024;8.172;2023-06-10T16:48:23;4.57;;;4.10;;
15814;SDS011;8008;50.024;8.172;2023-06-10T16:50:51;5.38;;;4.50;;
15814;SDS011;8008;50.024;8.172;2023-06-10T16:53:19;5.22;;;4.57;;
15814;SDS011;8008;50.024;8.172;2023-06-10T16:55:49;4.88;;;4.40;;
15814;SDS011;8008;50.024;8.172;2023-06-10T16:58:17;5.38;;;4.40;;
15814;SDS011;8008;50.024;8.172;2023-06-10T17:00:45;4.68;;;4.28;;
15814;SDS011;8008;50.024;8.172;2023-06-10T17:03:13;4.68;;;4.28;;
15814;SDS011;8008;50.024;8.172;2023-06-10T17:05:41;4.75;;;4.30;;
15814;SDS011;8008;50.024;8.172;2023-06-10T17:08:10;4.45;;;4.05;;
15814;SDS011;8008;50.024;8.172;2023-06-10T17:10:38;4.63;;;4.22;;
15814;SDS011;8008;50.024;8.172;2023-06-10T17:13:07;4.95;;;4.38;;
15814;SDS011;8008;50.024;8.172;2023-06-10T17:15:35;4.57;;;4.18;;
15814;SDS011;8008;50.024;8.172;2023-06-10T17:18:03;4.75;;;4.35;;
15814;SDS011;8008;50.024;8.172;2023-06-10T17:20:32;6.30;;;4.60;;
15814;SDS011;8008;50.024;8.172;2023-06-10T17:23:00;5.03;;;4.53;;
15814;SDS011;8008;50.024;8.172;2023-06-10T17:25:28;4.70;;;3.88;;
15814;SDS011;8008;50.024;8.172;2023-06-10T17:27:56;5.63;;;4.45;;
15814;SDS011;8008;50.024;8.172;2023-06-10T17:30:25;5.40;;;3.97;;
15814;SDS011;8008;50.024;8.172;2023-06-10T17:32:53;4.65;;;4.25;;
15814;SDS011;8008;50.024;8.172;2023-06-10T17:35:21;4.18;;;3.75;;
15814;SDS011;8008;50.024;8.172;2023-06-10T17:37:49;5.13;;;4.05;;
15814;SDS011;8008;50.024;8.172;2023-06-10T17:40:18;4.32;;;3.92;;
15814;SDS011;8008;50.024;8.172;2023-06-10T17:42:46;4.68;;;4.13;;
15814;SDS011;8008;50.024;8.172;2023-06-10T17:45:14;3.97;;;3.67;;
15814;SDS011;8008;50.024;8.172;2023-06-10T17:47:43;4.55;;;4.10;;
15814;SDS011;8008;50.024;8.172;2023-06-10T17:50:11;4.57;;;4.18;;
15814;SDS011;8008;50.024;8.172;2023-06-10T17:52:43;6.18;;;4.30;;
15814;SDS011;8008;50.024;8.172;2023-06-10T17:55:11;5.80;;;4.05;;
15814;SDS011;8008;50.024;8.172;2023-06-10T17:57:40;4.15;;;3.83;;
15814;SDS011;8008;50.024;8.172;2023-06-10T18:00:08;5.63;;;4.60;;
15814;SDS011;8008;50.024;8.172;2023-06-10T18:02:38;4.82;;;4.10;;
15814;SDS011;8008;50.024;8.172;2023-06-10T18:05:07;5.18;;;4.68;;
15814;SDS011;8008;50.024;8.172;2023-06-10T18:07:36;6.80;;;4.75;;
15814;SDS011;8008;50.024;8.172;2023-06-10T18:10:05;7.22;;;6.03;;
15814;SDS011;8008;50.024;8.172;2023-06-10T18:12:33;6.25;;;5.60;;
15814;SDS011;8008;50.024;8.172;2023-06-10T18:15:01;5.20;;;4.70;;
15814;SDS011;8008;50.024;8.172;2023-06-10T18:17:30;6.45;;;4.90;;